Terminal Aerodrome Forecast
Issued by NWS Boise, ID

Home | Current Version | Previous Version | Text Only | Print | Product List | Glossary On
Versions: 1 2 3 4 5 6 7 8 9 10 11 12 13 14 15 16 17 18 19 20 21 22 23 24 25 26 27 28
516
FTUS45 KBOI 292345
TAFBNO
TAF
KBNO 292345Z 3000/3024 21010KT P6SM -SHRA OVC050
     FM301000 27020G30KT P6SM -RA OVC025
     FM301600 27025G35KT P6SM -SHRASN OVC030=

USA.gov is the U.S. government's official web portal to all federal, state and local government web resources and services.